createdAt,value
2019-02-06T00:01:45.305Z,3.37
2019-02-06T00:04:28.904Z,2.87
2019-02-06T00:07:02.977Z,2.90
2019-02-06T00:09:38.147Z,2.33
2019-02-06T00:12:12.232Z,2.60
2019-02-06T00:14:47.026Z,2.85
2019-02-06T00:17:21.083Z,2.70
2019-02-06T00:19:55.335Z,3.22
2019-02-06T00:22:29.469Z,3.25
2019-02-06T00:25:03.395Z,3.30
2019-02-06T00:27:36.740Z,2.22
2019-02-06T00:30:11.496Z,2.67
2019-02-06T00:32:45.961Z,3.10
2019-02-06T00:35:25.838Z,2.90
2019-02-06T00:37:56.340Z,2.50
2019-02-06T00:40:30.683Z,2.22
2019-02-06T00:43:04.949Z,3.17
2019-02-06T00:45:38.367Z,2.45
2019-02-06T00:48:12.458Z,2.58
2019-02-06T00:50:46.648Z,2.70
2019-02-06T00:53:20.572Z,2.40
2019-02-06T00:55:54.431Z,2.70
2019-02-06T00:58:28.843Z,6.75
2019-02-06T01:01:10.680Z,3.85
2019-02-06T01:03:44.942Z,3.10
2019-02-06T01:06:20.317Z,2.67
2019-02-06T01:08:54.696Z,2.72
2019-02-06T01:11:28.924Z,2.95
2019-02-06T01:14:02.860Z,3.75
2019-02-06T01:16:36.890Z,3.25
2019-02-06T01:19:10.531Z,3.30
2019-02-06T01:21:44.781Z,3.70
2019-02-06T01:24:18.567Z,3.85
2019-02-06T01:26:52.692Z,3.25
2019-02-06T01:29:27.120Z,3.40
2019-02-06T01:32:01.287Z,4.35
2019-02-06T01:34:35.540Z,3.30
2019-02-06T01:37:09.794Z,4.30
2019-02-06T01:39:43.983Z,3.87
2019-02-06T01:42:17.875Z,4.40
2019-02-06T01:44:51.882Z,7.40
2019-02-06T01:47:25.905Z,8.35
2019-02-06T01:49:59.840Z,5.35
2019-02-06T01:52:33.979Z,4.50
2019-02-06T01:55:09.113Z,5.10
2019-02-06T01:57:43.453Z,5.62
2019-02-06T02:00:20.274Z,5.50
2019-02-06T02:03:06.846Z,6.22
2019-02-06T02:06:01.983Z,5.62
2019-02-06T02:08:27.537Z,5.75
2019-02-06T02:11:01.676Z,6.72
2019-02-06T02:13:49.714Z,6.28
2019-02-06T02:16:24.945Z,6.62
2019-02-06T02:18:59.013Z,6.25
2019-02-06T02:21:33.128Z,6.17
2019-02-06T02:24:06.717Z,6.30
2019-02-06T02:26:43.186Z,7.83
2019-02-06T02:29:17.743Z,7.50
2019-02-06T02:31:51.888Z,10.55
2019-02-06T02:34:25.846Z,14.43
2019-02-06T02:36:59.977Z,15.38
2019-02-06T02:39:43.208Z,14.90
2019-02-06T02:42:17.410Z,13.58
2019-02-06T02:44:51.147Z,12.65
2019-02-06T02:47:25.006Z,11.83
2019-02-06T02:49:59.166Z,11.20
2019-02-06T02:52:33.809Z,11.18
2019-02-06T02:55:08.459Z,11.85
2019-02-06T02:57:42.948Z,12.35
2019-02-06T03:00:23.437Z,11.12
2019-02-06T03:03:24.029Z,10.60
2019-02-06T03:05:58.505Z,14.80
2019-02-06T03:08:32.816Z,17.37
2019-02-06T03:11:06.933Z,16.17
2019-02-06T03:13:42.285Z,14.47
2019-02-06T03:16:16.587Z,12.20
2019-02-06T03:18:51.116Z,11.75
2019-02-06T03:21:25.133Z,14.07
2019-02-06T03:24:03.934Z,13.28
2019-02-06T03:26:38.453Z,15.95
2019-02-06T03:29:12.617Z,15.32
2019-02-06T03:31:46.699Z,16.05
2019-02-06T03:34:20.809Z,15.95
2019-02-06T03:36:54.819Z,14.30
2019-02-06T03:39:29.082Z,10.23
2019-02-06T03:42:03.462Z,11.93
2019-02-06T03:44:38.010Z,11.65
2019-02-06T03:47:12.446Z,12.15
2019-02-06T03:49:48.252Z,15.93
2019-02-06T03:52:21.907Z,14.75
2019-02-06T03:54:57.122Z,11.95
2019-02-06T03:57:31.285Z,10.70
2019-02-06T04:00:06.431Z,10.65
2019-02-06T04:02:40.960Z,13.50
2019-02-06T04:05:26.918Z,14.45
2019-02-06T04:08:11.737Z,12.18
2019-02-06T04:10:46.417Z,12.33
2019-02-06T04:13:32.094Z,12.13
2019-02-06T04:16:06.591Z,14.63
2019-02-06T04:18:40.818Z,15.83
2019-02-06T04:21:15.005Z,20.08
2019-02-06T04:23:50.325Z,19.77
2019-02-06T04:26:24.544Z,24.87
2019-02-06T04:28:58.560Z,20.00
2019-02-06T04:31:32.873Z,23.07
2019-02-06T04:34:06.929Z,15.05
2019-02-06T04:36:41.482Z,14.10
2019-02-06T04:39:15.203Z,15.35
2019-02-06T04:41:49.343Z,16.48
2019-02-06T04:44:23.426Z,18.10
2019-02-06T04:46:57.272Z,18.10
2019-02-06T04:49:31.189Z,14.90
2019-02-06T04:52:06.360Z,15.20
2019-02-06T04:54:52.047Z,32.35
2019-02-06T04:57:38.700Z,43.00
2019-02-06T05:00:24.596Z,36.35
2019-02-06T05:03:10.375Z,33.02
2019-02-06T05:05:56.315Z,16.65
2019-02-06T05:08:42.875Z,17.23
2019-02-06T05:11:21.661Z,20.27
2019-02-06T05:13:57.311Z,17.98
2019-02-06T05:16:31.500Z,22.17
2019-02-06T05:19:05.767Z,29.98
2019-02-06T05:21:40.004Z,21.35
2019-02-06T05:24:14.259Z,17.15
2019-02-06T05:26:48.503Z,23.35
2019-02-06T05:29:23.566Z,24.00
2019-02-06T05:31:57.732Z,30.40
2019-02-06T05:34:32.666Z,62.30
2019-02-06T05:37:07.081Z,22.55
2019-02-06T05:39:41.238Z,26.73
2019-02-06T05:42:15.572Z,24.25
2019-02-06T05:44:50.049Z,19.85
2019-02-06T05:47:25.845Z,30.00
2019-02-06T05:50:01.233Z,29.12
2019-02-06T05:52:35.002Z,28.95
2019-02-06T05:55:09.629Z,30.48
2019-02-06T05:57:43.947Z,20.75
2019-02-06T06:00:22.872Z,18.35
2019-02-06T06:02:58.201Z,29.50
2019-02-06T06:05:42.216Z,24.75
2019-02-06T06:08:16.673Z,28.98
2019-02-06T06:10:51.119Z,49.50
2019-02-06T06:13:25.341Z,40.60
2019-02-06T06:15:59.773Z,35.23
2019-02-06T06:18:33.966Z,41.13
2019-02-06T06:21:08.298Z,43.08
2019-02-06T06:23:44.316Z,40.35
2019-02-06T06:26:18.636Z,40.43
2019-02-06T06:28:54.256Z,30.52
2019-02-06T06:31:28.422Z,29.25
2019-02-06T06:34:02.749Z,28.65
2019-02-06T06:36:37.668Z,23.60
2019-02-06T06:39:11.697Z,24.43
2019-02-06T06:41:46.142Z,23.40
2019-02-06T06:44:20.860Z,19.60
2019-02-06T06:47:09.941Z,20.40
2019-02-06T06:49:45.753Z,21.00
2019-02-06T06:52:19.955Z,30.12
2019-02-06T06:54:54.483Z,43.85
2019-02-06T06:57:28.559Z,40.88
2019-02-06T07:00:03.633Z,35.43
2019-02-06T07:02:37.816Z,32.08
2019-02-06T07:05:12.143Z,14.18
2019-02-06T07:07:46.595Z,16.27
2019-02-06T07:10:21.385Z,19.12
2019-02-06T07:12:56.076Z,25.02
2019-02-06T07:15:36.908Z,23.55
2019-02-06T07:18:11.341Z,31.70
2019-02-06T07:20:46.431Z,37.95
2019-02-06T07:23:21.036Z,38.78
2019-02-06T07:25:55.584Z,24.65
2019-02-06T07:28:41.995Z,58.80
2019-02-06T07:31:25.512Z,33.48
2019-02-06T07:33:59.811Z,28.75
2019-02-06T07:36:39.907Z,33.55
2019-02-06T07:39:14.442Z,33.28
2019-02-06T07:41:50.474Z,32.78
2019-02-06T07:44:23.843Z,25.75
2019-02-06T07:46:58.118Z,24.18
2019-02-06T07:49:32.852Z,19.67
2019-02-06T07:52:07.492Z,14.60
2019-02-06T07:54:41.936Z,13.03
2019-02-06T07:57:16.378Z,20.45
2019-02-06T07:59:50.391Z,24.43
2019-02-06T08:02:25.345Z,21.90
2019-02-06T08:04:59.603Z,15.25
2019-02-06T08:07:34.407Z,12.55
2019-02-06T08:10:11.638Z,10.95
2019-02-06T08:12:46.266Z,13.80
2019-02-06T08:15:21.607Z,11.73
2019-02-06T08:17:55.859Z,10.72
2019-02-06T08:20:30.500Z,8.45
2019-02-06T08:23:04.730Z,27.98
2019-02-06T08:25:39.063Z,30.85
2019-02-06T08:28:13.457Z,27.40
2019-02-06T08:30:59.002Z,17.42
2019-02-06T08:33:45.522Z,20.37
2019-02-06T08:36:33.181Z,18.15
2019-02-06T08:39:11.476Z,16.35
2019-02-06T08:41:45.751Z,12.60
2019-02-06T08:44:21.655Z,29.32
2019-02-06T08:46:56.104Z,12.55
2019-02-06T08:49:31.306Z,29.85
2019-02-06T08:52:05.861Z,14.68
2019-02-06T08:54:51.555Z,11.12
2019-02-06T08:57:28.040Z,12.40
2019-02-06T09:00:02.619Z,8.80
2019-02-06T09:02:38.269Z,16.95
2019-02-06T09:05:12.853Z,12.13
2019-02-06T09:07:47.594Z,11.53
2019-02-06T09:10:23.027Z,13.28
2019-02-06T09:12:57.136Z,15.88
2019-02-06T09:15:31.076Z,17.37
2019-02-06T09:18:07.378Z,11.22
2019-02-06T09:20:41.680Z,8.83
2019-02-06T09:23:16.190Z,9.05
2019-02-06T09:25:50.649Z,10.30
2019-02-06T09:28:24.860Z,14.78
2019-02-06T09:30:59.311Z,14.20
2019-02-06T09:33:33.719Z,13.98
2019-02-06T09:36:08.261Z,12.23
2019-02-06T09:38:43.021Z,16.75
2019-02-06T09:41:20.062Z,20.62
2019-02-06T09:43:54.299Z,13.35
2019-02-06T09:46:28.448Z,17.90
2019-02-06T09:49:03.311Z,18.12
2019-02-06T09:51:37.655Z,19.37
2019-02-06T09:54:12.409Z,22.90
2019-02-06T09:56:58.081Z,23.67
2019-02-06T09:59:41.692Z,20.23
2019-02-06T10:08:44.671Z,17.60
2019-02-06T10:11:29.051Z,12.95
2019-02-06T10:14:28.039Z,10.90
2019-02-06T10:17:30.303Z,11.48
2019-02-06T10:20:16.993Z,13.38
2019-02-06T10:23:05.571Z,14.87
2019-02-06T10:25:53.914Z,12.82
2019-02-06T10:28:35.412Z,17.82
2019-02-06T10:31:24.707Z,23.10
2019-02-06T10:33:59.909Z,12.47
2019-02-06T10:36:45.257Z,10.78
2019-02-06T10:39:19.636Z,12.93
2019-02-06T10:41:54.062Z,11.08
2019-02-06T10:44:28.024Z,12.07
2019-02-06T10:47:03.431Z,12.90
2019-02-06T10:49:38.097Z,10.65
2019-02-06T10:52:12.765Z,11.43
2019-02-06T10:54:47.084Z,15.35
2019-02-06T10:57:21.968Z,12.30
2019-02-06T10:59:57.580Z,10.63
2019-02-06T11:02:34.644Z,10.75
2019-02-06T11:05:10.663Z,11.88
2019-02-06T11:07:46.191Z,13.90
2019-02-06T11:10:22.244Z,14.80
2019-02-06T11:12:57.617Z,9.55
2019-02-06T11:15:32.493Z,12.05
2019-02-06T11:18:09.892Z,16.25
2019-02-06T11:20:44.682Z,11.90
2019-02-06T11:23:18.613Z,14.10
2019-02-06T11:32:19.696Z,12.30
2019-02-06T11:35:03.432Z,13.93
2019-02-06T11:37:37.814Z,20.32
2019-02-06T11:40:16.869Z,17.45
2019-02-06T11:42:51.146Z,19.00
2019-02-06T11:45:39.205Z,23.77
2019-02-06T11:48:13.901Z,15.72
2019-02-06T11:50:48.097Z,14.78
2019-02-06T11:53:26.516Z,14.98
2019-02-06T11:56:00.752Z,13.38
2019-02-06T11:58:34.969Z,13.08
2019-02-06T12:01:41.922Z,11.73
2019-02-06T12:04:16.394Z,16.82
2019-02-06T12:07:00.699Z,17.90
2019-02-06T12:09:41.489Z,16.00
2019-02-06T12:12:15.888Z,10.60
2019-02-06T12:14:51.350Z,16.95
2019-02-06T12:17:25.960Z,10.20
2019-02-06T12:20:00.279Z,19.45
2019-02-06T12:22:34.582Z,15.78
2019-02-06T12:25:09.722Z,18.75
2019-02-06T12:27:45.245Z,17.52
2019-02-06T12:30:29.631Z,13.30
2019-02-06T12:33:04.269Z,12.95
2019-02-06T12:35:38.573Z,11.00
2019-02-06T12:38:12.568Z,14.13
2019-02-06T12:40:47.564Z,12.75
2019-02-06T12:43:23.117Z,9.68
2019-02-06T12:45:58.603Z,8.80
2019-02-06T12:48:33.672Z,10.20
2019-02-06T12:51:08.172Z,8.30
2019-02-06T12:53:42.756Z,8.23
2019-02-06T12:56:29.201Z,10.05
2019-02-06T12:59:13.094Z,8.93
2019-02-06T13:01:47.482Z,12.63
2019-02-06T13:04:23.547Z,14.03
2019-02-06T13:07:00.237Z,12.45
2019-02-06T13:09:34.985Z,12.35
2019-02-06T13:12:09.407Z,47.60
2019-02-06T13:14:43.740Z,32.67
2019-02-06T13:17:18.351Z,24.67
2019-02-06T13:19:52.716Z,19.40
2019-02-06T13:22:27.299Z,11.38
2019-02-06T13:25:01.707Z,17.10
2019-02-06T13:27:37.102Z,11.43
2019-02-06T13:30:22.842Z,12.65
2019-02-06T13:33:11.731Z,13.28
2019-02-06T13:35:57.493Z,12.28
2019-02-06T13:38:41.327Z,10.30
2019-02-06T13:41:16.420Z,12.93
2019-02-06T13:43:50.820Z,13.53
2019-02-06T13:46:25.038Z,11.45
2019-02-06T13:49:02.429Z,14.43
2019-02-06T13:51:36.890Z,15.80
2019-02-06T13:54:11.185Z,15.20
2019-02-06T13:56:45.698Z,10.98
2019-02-06T13:59:20.577Z,9.73
2019-02-06T14:01:55.101Z,15.63
2019-02-06T14:04:29.397Z,24.63
2019-02-06T14:07:03.819Z,13.65
2019-02-06T14:09:38.465Z,12.70
2019-02-06T14:12:13.651Z,17.10
2019-02-06T14:14:47.981Z,39.60
2019-02-06T14:17:23.156Z,13.50
2019-02-06T14:19:57.510Z,17.02
2019-02-06T14:22:31.760Z,23.95
2019-02-06T14:25:21.432Z,15.85
2019-02-06T14:28:09.248Z,17.82
2019-02-06T14:31:14.656Z,25.25
2019-02-06T14:34:19.131Z,28.98
2019-02-06T14:37:37.900Z,25.80
2019-02-06T14:40:52.508Z,19.23
2019-02-06T14:43:48.683Z,13.03
2019-02-06T14:47:04.243Z,21.50
2019-02-06T14:50:02.747Z,15.48
2019-02-06T14:53:13.643Z,15.60
2019-02-06T14:56:14.190Z,18.57
2019-02-06T14:59:50.745Z,10.50
2019-02-06T15:03:18.000Z,18.20
2019-02-06T15:06:15.314Z,15.40
2019-02-06T15:09:01.542Z,7.75
2019-02-06T15:11:50.652Z,31.27
2019-02-06T15:14:35.214Z,12.03
2019-02-06T15:17:21.091Z,12.28
2019-02-06T15:20:38.361Z,17.32
2019-02-06T15:23:50.761Z,22.67
2019-02-06T15:27:07.478Z,39.20
2019-02-06T15:30:15.666Z,19.90
2019-02-06T15:33:32.003Z,31.30
2019-02-06T15:36:48.671Z,36.20
2019-02-06T15:40:12.773Z,36.58
2019-02-06T15:43:37.575Z,35.73
2019-02-06T15:46:46.595Z,40.75
2019-02-06T15:50:11.334Z,40.63
2019-02-06T15:53:09.741Z,40.88
2019-02-06T15:56:18.448Z,64.12
2019-02-06T15:59:28.625Z,69.50
2019-02-06T16:02:52.613Z,46.65
2019-02-06T16:06:13.409Z,75.47
2019-02-06T16:09:21.357Z,49.10
2019-02-06T16:12:12.292Z,60.40
2019-02-06T16:15:12.392Z,94.35
2019-02-06T16:18:29.207Z,46.00
2019-02-06T16:21:32.625Z,53.15
2019-02-06T16:24:45.460Z,48.58
2019-02-06T16:27:37.894Z,49.88
2019-02-06T16:31:03.908Z,55.15
2019-02-06T16:34:02.355Z,35.25
2019-02-06T16:36:58.364Z,32.70
2019-02-06T16:39:46.293Z,26.95
2019-02-06T16:43:01.223Z,24.65
2019-02-06T16:46:32.474Z,19.40
2019-02-06T16:49:25.804Z,19.57
2019-02-06T16:52:25.761Z,29.50
2019-02-06T16:55:30.703Z,42.45
2019-02-06T16:58:35.891Z,26.93
2019-02-06T17:02:06.844Z,25.43
2019-02-06T17:05:05.119Z,22.30
2019-02-06T17:08:36.397Z,21.50
2019-02-06T17:12:04.607Z,32.58
2019-02-06T17:15:15.970Z,22.62
2019-02-06T17:18:27.945Z,18.52
2019-02-06T17:21:48.749Z,27.10
2019-02-06T17:24:51.900Z,25.82
2019-02-06T17:28:04.215Z,29.18
2019-02-06T17:31:22.800Z,29.05
2019-02-06T17:34:39.920Z,19.50
2019-02-06T17:38:03.349Z,21.33
2019-02-06T17:41:34.665Z,28.40
2019-02-06T17:44:27.656Z,35.70
2019-02-06T17:47:28.739Z,33.92
2019-02-06T17:50:44.377Z,28.73
2019-02-06T17:53:48.149Z,33.33
2019-02-06T17:56:24.318Z,43.83
2019-02-06T17:58:59.622Z,38.63
2019-02-06T18:01:55.447Z,31.80
2019-02-06T18:04:32.390Z,28.95
2019-02-06T18:07:08.225Z,17.00
2019-02-06T18:09:52.380Z,11.22
2019-02-06T18:12:32.510Z,14.55
2019-02-06T18:15:07.656Z,9.90
2019-02-06T18:17:44.250Z,10.65
2019-02-06T18:20:19.232Z,11.97
2019-02-06T18:22:53.706Z,7.47
2019-02-06T18:25:28.169Z,8.83
2019-02-06T18:28:04.073Z,10.63
2019-02-06T18:30:39.105Z,11.55
2019-02-06T18:33:18.736Z,22.80
2019-02-06T18:35:51.938Z,13.55
2019-02-06T18:38:26.390Z,13.10
2019-02-06T18:41:01.163Z,20.12
2019-02-06T18:43:35.706Z,17.00
2019-02-06T18:46:10.307Z,49.38
2019-02-06T18:48:45.262Z,17.50
2019-02-06T18:51:19.640Z,18.92
2019-02-06T18:53:54.134Z,19.75
2019-02-06T18:56:28.434Z,19.17
2019-02-06T18:59:15.073Z,19.05
2019-02-06T19:02:01.064Z,26.42
2019-02-06T19:04:45.486Z,27.85
2019-02-06T19:07:29.224Z,24.15
2019-02-06T19:10:03.685Z,52.23
2019-02-06T19:12:50.712Z,28.52
2019-02-06T19:15:24.310Z,23.67
2019-02-06T19:17:58.658Z,23.50
2019-02-06T19:20:35.703Z,22.62
2019-02-06T19:23:09.502Z,18.87
2019-02-06T19:25:44.903Z,20.05
2019-02-06T19:28:19.358Z,17.32
2019-02-06T19:30:55.637Z,14.68
2019-02-06T19:33:29.719Z,13.95
2019-02-06T19:36:14.212Z,14.68
2019-02-06T19:39:02.392Z,22.82
2019-02-06T19:41:52.426Z,29.42
2019-02-06T19:44:38.948Z,39.92
2019-02-06T19:47:14.583Z,32.33
2019-02-06T19:49:49.225Z,26.25
2019-02-06T19:52:23.878Z,25.75
2019-02-06T19:54:59.929Z,21.57
2019-02-06T19:57:34.729Z,37.40
2019-02-06T20:00:13.294Z,35.88
2019-02-06T20:02:48.440Z,32.00
2019-02-06T20:05:23.314Z,37.70
2019-02-06T20:07:57.793Z,38.55
2019-02-06T20:10:43.929Z,37.45
2019-02-06T20:13:18.292Z,44.63
2019-02-06T20:15:52.722Z,51.73
2019-02-06T20:18:27.241Z,61.50
2019-02-06T20:21:01.646Z,57.58
2019-02-06T20:23:35.954Z,51.60
2019-02-06T20:26:09.908Z,82.15
2019-02-06T20:28:46.862Z,52.23
2019-02-06T20:31:22.100Z,57.73
2019-02-06T20:33:57.803Z,40.80
2019-02-06T20:36:40.523Z,56.45
2019-02-06T20:39:15.066Z,52.15
2019-02-06T20:41:49.360Z,55.00
2019-02-06T20:44:23.820Z,57.85
2019-02-06T20:47:00.556Z,56.88
2019-02-06T20:49:35.627Z,48.90
2019-02-06T20:52:10.554Z,117.40
2019-02-06T20:54:46.280Z,70.87
2019-02-06T20:57:20.185Z,44.20
2019-02-06T20:59:54.710Z,53.92
2019-02-06T21:02:37.872Z,68.83
2019-02-06T21:05:13.344Z,85.45
2019-02-06T21:07:47.634Z,72.22
2019-02-06T21:10:23.822Z,63.10
2019-02-06T21:12:58.315Z,79.35
2019-02-06T21:15:34.450Z,64.67
2019-02-06T21:18:09.054Z,51.40
2019-02-06T21:20:43.371Z,42.48
2019-02-06T21:23:19.453Z,74.77
2019-02-06T21:25:54.238Z,63.48
2019-02-06T21:28:31.014Z,62.05
2019-02-06T21:31:05.757Z,71.05
2019-02-06T21:33:40.047Z,57.05
2019-02-06T21:36:15.585Z,51.58
2019-02-06T21:38:49.874Z,50.40
2019-02-06T21:41:23.974Z,50.08
2019-02-06T21:43:59.491Z,48.15
2019-02-06T21:46:33.704Z,38.05
2019-02-06T21:49:08.293Z,40.15
2019-02-06T21:51:42.062Z,41.53
2019-02-06T21:54:20.322Z,43.70
2019-02-06T21:56:55.014Z,48.38
2019-02-06T21:59:29.255Z,51.55
2019-02-06T22:02:03.523Z,53.30
2019-02-06T22:04:37.688Z,54.13
2019-02-06T22:07:12.007Z,45.75
2019-02-06T22:09:46.221Z,52.70
2019-02-06T22:12:32.794Z,50.90
2019-02-06T22:15:11.199Z,39.05
2019-02-06T22:17:45.338Z,42.53
2019-02-06T22:20:20.033Z,39.15
2019-02-06T22:22:56.664Z,41.28
2019-02-06T22:25:30.788Z,43.42
2019-02-06T22:28:04.906Z,35.25
2019-02-06T22:30:38.961Z,49.67
2019-02-06T22:33:13.348Z,62.90
2019-02-06T22:35:47.672Z,72.03
2019-02-06T22:38:24.371Z,69.55
2019-02-06T22:40:58.672Z,80.20
2019-02-06T22:43:35.800Z,81.82
2019-02-06T22:46:09.675Z,75.72
2019-02-06T22:48:43.706Z,70.17
2019-02-06T22:51:19.034Z,57.20
2019-02-06T22:53:53.351Z,57.40
2019-02-06T22:56:27.807Z,50.52
2019-02-06T22:59:01.571Z,49.25
2019-02-06T23:01:48.566Z,53.10
2019-02-06T23:04:23.583Z,53.05
2019-02-06T23:06:57.787Z,53.15
2019-02-06T23:09:32.209Z,50.92
2019-02-06T23:12:16.202Z,47.95
2019-02-06T23:15:00.995Z,44.63
2019-02-06T23:17:47.375Z,43.05
2019-02-06T23:20:34.010Z,41.88
2019-02-06T23:23:18.604Z,42.70
2019-02-06T23:25:52.777Z,44.25
2019-02-06T23:28:28.170Z,37.50
2019-02-06T23:31:01.774Z,35.75
2019-02-06T23:33:36.997Z,35.88
2019-02-06T23:36:26.206Z,43.05
2019-02-06T23:39:00.523Z,36.05
2019-02-06T23:41:36.013Z,35.10
2019-02-06T23:44:12.340Z,36.00
2019-02-06T23:46:46.860Z,35.48
2019-02-06T23:49:20.855Z,32.90
2019-02-06T23:51:55.107Z,33.70
2019-02-06T23:54:29.241Z,31.20
2019-02-06T23:57:03.638Z,28.40
2019-02-06T23:59:37.864Z,25.45
